Time,TemperatureF,DewpointF,PressureIn,WindDirection,WindDirectionDegrees,WindSpeedMPH,WindSpeedGustMPH,Humidity,HourlyPrecipIn,Conditions,Clouds,dailyrainin,SolarRadiationWatts/m^2,SoftwareType,DateUTC
2013-08-10 00:02:00,74.0,73.0,30.19,SW,214,4.0,9.0,98,0.00,,,0.00,0.000000,,2013-08-10 04:02:00,
2013-08-10 00:10:00,74.0,71.0,30.19,SW,214,3.0,7.0,91,0.00,,,0.00,0.000000,,2013-08-10 04:10:00,
2013-08-10 00:43:00,74.0,71.0,30.19,SW,214,3.0,7.0,91,0.00,,,0.00,0.000000,,2013-08-10 04:43:00,
2013-08-10 00:53:00,74.0,71.0,30.19,SW,214,3.0,7.0,91,0.00,,,0.00,0.000000,,2013-08-10 04:53:00,
2013-08-10 01:02:00,74.0,71.0,30.19,SW,214,3.0,7.0,91,0.00,,,0.00,0.000000,,2013-08-10 05:02:00,
2013-08-10 01:10:00,73.0,71.0,30.20,SW,228,2.0,6.0,92,0.00,,,0.00,0.000000,,2013-08-10 05:10:00,
2013-08-10 01:43:00,73.0,71.0,30.20,SW,228,2.0,6.0,92,0.00,,,0.00,0.000000,,2013-08-10 05:43:00,
2013-08-10 01:52:00,73.0,71.0,30.20,SW,228,2.0,6.0,92,0.00,,,0.00,0.000000,,2013-08-10 05:52:00,
2013-08-10 02:02:00,73.0,71.0,30.20,SW,228,2.0,6.0,92,0.00,,,0.00,0.000000,,2013-08-10 06:02:00,
2013-08-10 02:10:00,71.0,70.0,30.19,West,265,1.0,4.0,96,0.00,,,0.00,0.000000,,2013-08-10 06:10:00,
2013-08-10 02:44:00,71.0,70.0,30.19,West,265,1.0,4.0,96,0.00,,,0.00,0.000000,,2013-08-10 06:44:00,
2013-08-10 02:53:00,71.0,70.0,30.19,West,265,1.0,4.0,96,0.00,,,0.00,0.000000,,2013-08-10 06:53:00,
2013-08-10 03:02:00,71.0,70.0,30.19,West,265,1.0,4.0,96,0.00,,,0.00,0.000000,,2013-08-10 07:02:00,
2013-08-10 03:10:00,72.0,71.0,30.19,South,189,3.0,6.0,98,0.00,,,0.00,0.000000,,2013-08-10 07:10:00,
2013-08-10 03:33:00,72.0,71.0,30.19,South,189,3.0,6.0,98,0.00,,,0.00,0.000000,,2013-08-10 07:33:00,
2013-08-10 03:43:00,72.0,71.0,30.19,South,189,3.0,6.0,98,0.00,,,0.00,0.000000,,2013-08-10 07:43:00,
2013-08-10 03:52:00,72.0,71.0,30.19,South,189,3.0,6.0,98,0.00,,,0.00,0.000000,,2013-08-10 07:52:00,
2013-08-10 04:01:00,72.0,71.0,30.19,South,189,3.0,6.0,98,0.00,,,0.00,0.000000,,2013-08-10 08:01:00,
2013-08-10 04:10:00,71.0,71.0,30.18,SSW,194,4.0,7.0,99,0.00,,,0.00,0.000000,,2013-08-10 08:10:00,
2013-08-10 04:32:00,71.0,71.0,30.18,SSW,194,4.0,7.0,99,0.00,,,0.00,0.000000,,2013-08-10 08:32:00,
2013-08-10 04:43:00,71.0,71.0,30.18,SSW,194,4.0,7.0,99,0.00,,,0.00,0.000000,,2013-08-10 08:43:00,
2013-08-10 04:53:00,71.0,71.0,30.18,SSW,194,4.0,7.0,99,0.00,,,0.00,0.000000,,2013-08-10 08:53:00,
2013-08-10 05:02:00,71.0,71.0,30.18,SSW,194,4.0,7.0,99,0.00,,,0.00,0.000000,,2013-08-10 09:02:00,
2013-08-10 05:10:00,71.0,71.0,30.19,South,185,4.0,7.0,100,0.00,,,0.00,0.000000,,2013-08-10 09:10:00,
2013-08-10 05:43:00,71.0,71.0,30.19,South,185,4.0,7.0,100,0.00,,,0.00,0.000000,,2013-08-10 09:43:00,
2013-08-10 05:52:00,71.0,71.0,30.19,South,185,4.0,7.0,100,0.00,,,0.00,0.000000,,2013-08-10 09:52:00,
2013-08-10 06:02:00,71.0,71.0,30.19,South,185,4.0,7.0,100,0.00,,,0.00,0.000000,,2013-08-10 10:02:00,
2013-08-10 06:10:00,73.0,73.0,30.18,SSW,198,3.0,8.0,100,0.00,,,0.00,0.000000,,2013-08-10 10:10:00,
2013-08-10 06:44:00,73.0,73.0,30.18,SSW,198,3.0,8.0,100,0.00,,,0.00,0.000000,,2013-08-10 10:44:00,
2013-08-10 06:53:00,73.0,73.0,30.18,SSW,198,3.0,8.0,100,0.00,,,0.00,0.000000,,2013-08-10 10:53:00,
2013-08-10 07:02:00,73.0,73.0,30.18,SSW,198,3.0,8.0,100,0.00,,,0.00,0.000000,,2013-08-10 11:02:00,
2013-08-10 09:10:00,81.0,72.0,30.22,SW,221,6.0,10.0,74,-99.99,,,0.00,217.000000,,2013-08-10 13:10:00,
2013-08-10 09:43:00,81.0,72.0,30.22,SW,221,6.0,10.0,74,-99.99,,,0.00,217.000000,,2013-08-10 13:43:00,
2013-08-10 09:52:00,81.0,72.0,30.22,SW,221,6.0,10.0,74,-99.99,,,0.00,217.000000,,2013-08-10 13:52:00,
2013-08-10 10:02:00,81.0,72.0,30.22,SW,221,6.0,10.0,74,-99.99,,,0.00,217.000000,,2013-08-10 14:02:00,
2013-08-10 10:10:00,84.0,73.0,30.22,SW,233,4.0,11.0,70,0.00,,,0.00,477.000000,,2013-08-10 14:10:00,
2013-08-10 10:43:00,84.0,73.0,30.22,SW,233,4.0,11.0,70,0.00,,,0.00,477.000000,,2013-08-10 14:43:00,
2013-08-10 10:53:00,84.0,73.0,30.22,SW,233,4.0,11.0,70,0.00,,,0.00,477.000000,,2013-08-10 14:53:00,
2013-08-10 11:02:00,84.0,73.0,30.22,SW,233,4.0,11.0,70,0.00,,,0.00,477.000000,,2013-08-10 15:02:00,
2013-08-10 11:10:00,89.0,75.0,30.22,SW,236,6.0,12.0,63,0.00,,,0.00,790.000000,,2013-08-10 15:10:00,
2013-08-10 11:43:00,89.0,75.0,30.22,SW,236,6.0,12.0,63,0.00,,,0.00,790.000000,,2013-08-10 15:43:00,
2013-08-10 11:52:00,89.0,75.0,30.22,SW,236,6.0,12.0,63,0.00,,,0.00,790.000000,,2013-08-10 15:52:00,
2013-08-10 12:01:00,89.0,75.0,30.22,SW,236,6.0,12.0,63,0.00,,,0.00,790.000000,,2013-08-10 16:01:00,
2013-08-10 12:10:00,91.0,76.0,30.22,South,179,5.0,16.0,61,0.00,,,0.00,929.000000,,2013-08-10 16:10:00,
2013-08-10 12:32:00,91.0,76.0,30.22,South,179,5.0,16.0,61,0.00,,,0.00,929.000000,,2013-08-10 16:32:00,
2013-08-10 12:43:00,91.0,76.0,30.22,South,179,5.0,16.0,61,0.00,,,0.00,929.000000,,2013-08-10 16:43:00,
2013-08-10 12:53:00,91.0,76.0,30.22,South,179,5.0,16.0,61,0.00,,,0.00,929.000000,,2013-08-10 16:53:00,
2013-08-10 13:02:00,91.0,76.0,30.22,South,179,5.0,16.0,61,0.00,,,0.00,929.000000,,2013-08-10 17:02:00,
2013-08-10 13:10:00,92.0,75.0,30.20,WSW,244,5.0,13.0,57,0.00,,,0.00,997.000000,,2013-08-10 17:10:00,
2013-08-10 13:33:00,92.0,75.0,30.20,WSW,244,5.0,13.0,57,0.00,,,0.00,997.000000,,2013-08-10 17:33:00,
2013-08-10 13:43:00,92.0,75.0,30.20,WSW,244,5.0,13.0,57,0.00,,,0.00,997.000000,,2013-08-10 17:43:00,
2013-08-10 13:52:00,92.0,75.0,30.20,WSW,244,5.0,13.0,57,0.00,,,0.00,997.000000,,2013-08-10 17:52:00,
2013-08-10 14:01:00,92.0,75.0,30.20,WSW,244,5.0,13.0,57,0.00,,,0.00,997.000000,,2013-08-10 18:01:00,
2013-08-10 14:10:00,94.0,76.0,30.19,SSW,208,6.0,12.0,56,0.00,,,0.00,1028.000000,,2013-08-10 18:10:00,
2013-08-10 14:32:00,94.0,76.0,30.19,SSW,208,6.0,12.0,56,0.00,,,0.00,1028.000000,,2013-08-10 18:32:00,
2013-08-10 14:44:00,94.0,76.0,30.19,SSW,208,6.0,12.0,56,0.00,,,0.00,1028.000000,,2013-08-10 18:44:00,
2013-08-10 14:52:00,94.0,76.0,30.19,SSW,208,6.0,12.0,56,0.00,,,0.00,1028.000000,,2013-08-10 18:52:00,
2013-08-10 15:02:00,94.0,76.0,30.19,SSW,208,6.0,12.0,56,0.00,,,0.00,1028.000000,,2013-08-10 19:02:00,
2013-08-10 15:10:00,95.0,76.0,30.18,SW,214,8.0,15.0,55,0.00,,,0.00,944.000000,,2013-08-10 19:10:00,
2013-08-10 15:33:00,95.0,76.0,30.18,SW,214,8.0,15.0,55,0.00,,,0.00,944.000000,,2013-08-10 19:33:00,
2013-08-10 15:44:00,95.0,76.0,30.18,SW,214,8.0,15.0,55,0.00,,,0.00,944.000000,,2013-08-10 19:44:00,
2013-08-10 15:53:00,95.0,76.0,30.18,SW,214,8.0,15.0,55,0.00,,,0.00,944.000000,,2013-08-10 19:53:00,
2013-08-10 16:02:00,95.0,76.0,30.18,SW,214,8.0,15.0,55,0.00,,,0.00,944.000000,,2013-08-10 20:02:00,
2013-08-10 16:10:00,88.0,73.0,30.18,WNW,295,6.0,16.0,62,0.00,,,0.00,805.000000,,2013-08-10 20:10:00,
2013-08-10 16:33:00,88.0,73.0,30.18,WNW,295,6.0,16.0,62,0.00,,,0.00,805.000000,,2013-08-10 20:33:00,
2013-08-10 16:43:00,88.0,73.0,30.18,WNW,295,6.0,16.0,62,0.00,,,0.00,805.000000,,2013-08-10 20:43:00,
2013-08-10 16:53:00,88.0,73.0,30.18,WNW,295,6.0,16.0,62,0.00,,,0.00,805.000000,,2013-08-10 20:53:00,
2013-08-10 17:02:00,88.0,73.0,30.18,WNW,295,6.0,16.0,62,0.00,,,0.00,805.000000,,2013-08-10 21:02:00,
2013-08-10 17:10:00,74.0,72.0,30.20,NNW,329,6.0,34.0,94,0.05,,,0.05,119.000000,,2013-08-10 21:10:00,
2013-08-10 17:42:00,74.0,72.0,30.20,NNW,329,6.0,34.0,94,0.05,,,0.05,119.000000,,2013-08-10 21:42:00,
2013-08-10 17:52:00,74.0,72.0,30.20,NNW,329,6.0,34.0,94,0.05,,,0.05,119.000000,,2013-08-10 21:52:00,
2013-08-10 18:01:00,74.0,72.0,30.20,NNW,329,6.0,34.0,94,0.05,,,0.05,119.000000,,2013-08-10 22:01:00,
2013-08-10 18:10:00,77.0,74.0,30.20,NNW,340,3.0,10.0,89,0.00,,,0.05,209.000000,,2013-08-10 22:10:00,
2013-08-10 18:32:00,77.0,74.0,30.20,NNW,340,3.0,10.0,89,0.00,,,0.05,209.000000,,2013-08-10 22:32:00,
2013-08-10 18:43:00,77.0,74.0,30.20,NNW,340,3.0,10.0,89,0.00,,,0.05,209.000000,,2013-08-10 22:43:00,
2013-08-10 18:52:00,77.0,74.0,30.20,NNW,340,3.0,10.0,89,0.00,,,0.05,209.000000,,2013-08-10 22:52:00,
2013-08-10 19:02:00,77.0,74.0,30.20,NNW,340,3.0,10.0,89,0.00,,,0.05,209.000000,,2013-08-10 23:02:00,
2013-08-10 19:10:00,79.0,74.0,30.22,SSE,162,2.0,5.0,84,0.01,,,0.06,207.000000,,2013-08-10 23:10:00,
2013-08-10 19:33:00,79.0,74.0,30.22,SSE,162,2.0,5.0,84,0.01,,,0.06,207.000000,,2013-08-10 23:33:00,
2013-08-10 19:43:00,79.0,74.0,30.22,SSE,162,2.0,5.0,84,0.01,,,0.06,207.000000,,2013-08-10 23:43:00,
2013-08-10 19:53:00,79.0,74.0,30.22,SSE,162,2.0,5.0,84,0.01,,,0.06,207.000000,,2013-08-10 23:53:00,
2013-08-10 20:02:00,79.0,74.0,30.22,SSE,162,2.0,5.0,84,0.01,,,0.06,207.000000,,2013-08-11 00:02:00,
2013-08-10 20:10:00,76.0,73.0,30.22,WNW,295,1.0,6.0,91,0.00,,,0.06,103.000000,,2013-08-11 00:10:00,
2013-08-10 20:32:00,76.0,73.0,30.22,WNW,295,1.0,6.0,91,0.00,,,0.06,103.000000,,2013-08-11 00:32:00,
2013-08-10 20:42:00,76.0,73.0,30.22,WNW,295,1.0,6.0,91,0.00,,,0.06,103.000000,,2013-08-11 00:42:00,
2013-08-10 20:52:00,76.0,73.0,30.22,WNW,295,1.0,6.0,91,0.00,,,0.06,103.000000,,2013-08-11 00:52:00,
2013-08-10 21:02:00,76.0,73.0,30.22,WNW,295,1.0,6.0,91,0.00,,,0.06,103.000000,,2013-08-11 01:02:00,
2013-08-10 21:10:00,71.0,70.0,30.22,SW,215,3.0,5.0,96,0.00,,,0.06,3.000000,,2013-08-11 01:10:00,
2013-08-10 21:32:00,71.0,70.0,30.22,SW,215,3.0,5.0,96,0.00,,,0.06,3.000000,,2013-08-11 01:32:00,
2013-08-10 21:43:00,71.0,70.0,30.22,SW,215,3.0,5.0,96,0.00,,,0.06,3.000000,,2013-08-11 01:43:00,
2013-08-10 21:54:00,71.0,70.0,30.22,SW,215,3.0,5.0,96,0.00,,,0.06,3.000000,,2013-08-11 01:54:00,
2013-08-10 22:02:00,71.0,70.0,30.22,SW,215,3.0,5.0,96,0.00,,,0.06,3.000000,,2013-08-11 02:02:00,
2013-08-10 22:10:00,72.0,71.0,30.24,West,274,4.0,6.0,98,0.00,,,0.06,0.000000,,2013-08-11 02:10:00,
2013-08-10 22:32:00,72.0,71.0,30.24,West,274,4.0,6.0,98,0.00,,,0.06,0.000000,,2013-08-11 02:32:00,
2013-08-10 22:43:00,72.0,71.0,30.24,West,274,4.0,6.0,98,0.00,,,0.06,0.000000,,2013-08-11 02:43:00,
2013-08-10 22:58:00,72.0,71.0,30.24,West,274,4.0,6.0,98,0.00,,,0.06,0.000000,,2013-08-11 02:58:00,
2013-08-10 23:06:00,72.0,71.0,30.24,West,274,4.0,6.0,98,0.00,,,0.06,0.000000,,2013-08-11 03:06:00,
2013-08-10 23:10:00,72.0,72.0,30.23,NW,316,2.0,7.0,99,0.00,,,0.06,0.000000,,2013-08-11 03:10:00,
2013-08-10 23:36:00,72.0,72.0,30.23,NW,316,2.0,7.0,99,0.00,,,0.06,0.000000,,2013-08-11 03:36:00,
2013-08-10 23:46:00,72.0,72.0,30.23,NW,316,2.0,7.0,99,0.00,,,0.06,0.000000,,2013-08-11 03:46:00,
2013-08-10 23:57:00,72.0,72.0,30.23,NW,316,2.0,7.0,99,0.00,,,0.06,0.000000,,2013-08-11 03:57:00,